Sign in

Advertise on goboko.com

You can reach many thousands of active pilots each month by advertising on goboko.com.

Please contact us for details.

Advertising

Info

Aviation weather - KJYO

METAR KJYO 010415Z AUTO 00000KT 4SM BR OVC110 17/17 A2996 RMK AO2

TAF KIAD 292330Z 3000/0106 19003KT P6SM BKN090 FM300500 VRB03KT P6SM SCT090 FM301000 00000KT 1SM BR SCT090 FM301300 00000KT P6SM FEW050 SCT130 FM302000 13006KT P6SM FEW050 SCT250 FM010000 VRB03KT P6SM BKN090

ADDS Experimental. Do not use for flight-related decisions.

Javascript required. Ce site nécessite javascript